• Join FlightAware (Why Join?)
  • Login
  • US Flag 
05:44AM EST


 

Airport Tracker/Info


-or-


 

Live Flight TrackerFlight Track Log ✈ THY2461 ✈ 01-Jul-2013 ✈ LTAF / ADA - LTBA / IST

Flight Track Log - Related Links

Times and Time Zones

All times are in EDT time to prevent confusion due to time zone crossing. See the THY2461 flight status page for this flight to view local times or setup timezone preferences in your user account.

Time Position Orientation Groundspeed Altitude Reporting Facility
EDT Latitude Longitude Course Direction KTS MPH feet Rate Location/Type
07:25AM 37.5902 34.3770 311° West  Level Estimated
07:26AM 37.6452 34.2941 310° West  Level Estimated
07:27AM 37.7001 34.2111 310° West  Level Estimated
07:28AM 37.7549 34.1280 310° West  Level Estimated
07:29AM 37.8096 34.0448 310° West  Level Estimated
07:30AM 37.8643 33.9614 310° West  Level Estimated
07:31AM 37.9190 33.8780 310° West  Level Estimated
07:32AM 37.9736 33.7944 310° West  Level Estimated
07:33AM 38.0281 33.7107 310° West  Level Estimated
07:34AM 38.0826 33.6268 310° West  Level Estimated
07:35AM 38.1370 33.5428 309° West  Level Estimated
07:36AM 38.1913 33.4587 309° West  Level Estimated
07:37AM 38.2456 33.3745 309° West  Level Estimated
07:38AM 38.2999 33.2902 309° West  Level Estimated
07:39AM 38.3540 33.2057 309° West  Level Estimated
07:40AM 38.4081 33.1211 309° West  Level Estimated
07:41AM 38.4622 33.0364 309° West  Level Estimated
07:42AM 38.5162 32.9515 309° West  Level Estimated
07:43AM 38.5701 32.8665 309° West  Level Estimated
07:44AM 38.6239 32.7814 309° West  Level Estimated
07:45AM 38.6777 32.6962 309° West  Level Estimated
07:46AM 38.7315 32.6108 309° West  Level Estimated
07:47AM 38.7851 32.5253 309° West  Level Estimated
07:48AM 38.8387 32.4397 309° West  Level Estimated
07:49AM 38.8923 32.3540 309° West  Level Estimated
07:50AM 38.9458 32.2681 309° West  Level Estimated
07:51AM 38.9992 32.1821 309° West  Level Estimated
07:52AM 39.0526 32.0959 309° West  Level Estimated
07:53AM 39.1059 32.0097 309° West  Level Estimated
07:54AM 39.1591 31.9233 308° West  Level Estimated
07:55AM 39.2123 31.8367 308° West  Level Estimated
07:56AM 39.2654 31.7501 308° West  Level Estimated
07:57AM 39.3184 31.6633 308° West  Level Estimated
07:58AM 39.3714 31.5763 308° West  Level Estimated
07:59AM 39.4243 31.4893 308° West  Level Estimated
08:00AM 39.4772 31.4021 308° West  Level Estimated
08:01AM 39.5299 31.3148 308° West  Level Estimated
08:02AM 39.5827 31.2273 308° West  Level Estimated
08:03AM 39.6353 31.1397 308° West  Level Estimated
08:04AM 39.6879 31.0520 308° West  Level Estimated
08:05AM 39.7404 30.9641 308° West  Level Estimated
08:06AM 39.7929 30.8762 308° West  Level Estimated
08:07AM 39.8452 30.7880 308° West  Level Estimated
08:08AM 39.8976 30.6998 308° West  Level Estimated
08:09AM 39.9498 30.6114 308° West  Level Estimated
08:10AM 40.0020 30.5229 308° West  Level Estimated
08:11AM 40.0541 30.4342 308° West  Level Estimated
08:12AM 40.1062 30.3454 307° West  Level Estimated
08:13AM 40.1581 30.2565 307° West  Level Estimated
08:14AM 40.2101 30.1674 307° West  Level Estimated
08:15AM 40.2619 30.0782 307° West  Level Estimated
08:16AM 40.3137 29.9888 307° West  Level Estimated
08:17AM 40.3654 29.8993 307° West  Level Estimated
08:18AM 40.4170 29.8097 307° West  Level Estimated
08:19AM 40.4686 29.7200 307° West  Level Estimated
08:20AM 40.5201 29.6301 307° West  Level Estimated
08:21AM 40.5715 29.5401 307° West  Level Estimated
08:22AM 40.6229 29.4499 307° West  Level Estimated
08:23AM 40.6742 29.3596 307° West  Level Estimated
08:24AM 40.7254 29.2691 307° West  Level Estimated
08:25AM 40.7766 29.1785 307° West  Level Estimated
08:26AM 40.8276 29.0878 307° West  Level Estimated
08:27AM 40.8786 28.9969 307° West  Level Estimated
08:28AM 40.9296 28.9059 307° West  Level Estimated
08:29AM 40.9769 28.8211 306° West  Level Estimated
08:30AM 40.9769 28.8211 21° North  Level Estimated
08:31AM 40.9769 28.8211 21° North  Level Estimated
08:32AM 40.9769 28.8211 21° North  Level Estimated
08:33AM 40.9769 28.8211 21° North  Level Estimated
08:34AM 40.9769 28.8211 21° North  Level Estimated
08:35AM 40.9769 28.8211 21° North  Level Estimated
08:36AM 40.9769 28.8211 21° North  Level Estimated
08:37AM 40.9769 28.8211 21° North  Level Estimated
08:38AM 40.9769 28.8211 21° North  Level Estimated
08:39AM 40.9769 28.8211 21° North  Level Estimated
08:40AM 40.9769 28.8211 21° North  Level Estimated
08:41AM 40.9769 28.8211 21° North  Level Estimated
08:42AM 40.9769 28.8211 21° North  Level Estimated
08:43AM 40.9769 28.8211 21° North  Level Estimated
08:44AM 40.9769 28.8211 21° North  Level Estimated
08:45AM 40.9769 28.8211 21° North  Level Estimated